sensor_id;sensor_type;location;lat;lon;timestamp;P1;durP1;ratioP1;P2;durP2;ratioP2
21270;SDS011;10795;50.796;3.860;2022-12-18T00:01:52;89.65;;;41.67;;
21270;SDS011;10795;50.796;3.860;2022-12-18T00:04:23;92.28;;;41.83;;
21270;SDS011;10795;50.796;3.860;2022-12-18T00:06:49;87.57;;;40.90;;
21270;SDS011;10795;50.796;3.860;2022-12-18T00:09:16;72.15;;;37.20;;
21270;SDS011;10795;50.796;3.860;2022-12-18T00:11:42;75.75;;;38.63;;
21270;SDS011;10795;50.796;3.860;2022-12-18T00:14:08;67.07;;;32.85;;
21270;SDS011;10795;50.796;3.860;2022-12-18T00:16:36;71.35;;;34.22;;
21270;SDS011;10795;50.796;3.860;2022-12-18T00:19:02;54.28;;;29.42;;
21270;SDS011;10795;50.796;3.860;2022-12-18T00:21:29;83.40;;;35.22;;
21270;SDS011;10795;50.796;3.860;2022-12-18T00:23:56;72.50;;;34.67;;
21270;SDS011;10795;50.796;3.860;2022-12-18T00:26:24;77.80;;;31.98;;
21270;SDS011;10795;50.796;3.860;2022-12-18T00:28:57;104.30;;;34.58;;
21270;SDS011;10795;50.796;3.860;2022-12-18T00:31:24;74.78;;;35.97;;
21270;SDS011;10795;50.796;3.860;2022-12-18T00:33:53;101.95;;;37.17;;
21270;SDS011;10795;50.796;3.860;2022-12-18T00:36:31;77.40;;;37.30;;
21270;SDS011;10795;50.796;3.860;2022-12-18T00:38:59;83.50;;;39.50;;
21270;SDS011;10795;50.796;3.860;2022-12-18T00:41:26;80.22;;;38.95;;
21270;SDS011;10795;50.796;3.860;2022-12-18T00:44:12;80.28;;;38.13;;
21270;SDS011;10795;50.796;3.860;2022-12-18T00:46:39;84.25;;;38.22;;
21270;SDS011;10795;50.796;3.860;2022-12-18T00:49:05;84.22;;;38.95;;
21270;SDS011;10795;50.796;3.860;2022-12-18T00:51:31;76.78;;;37.78;;
21270;SDS011;10795;50.796;3.860;2022-12-18T00:53:58;77.35;;;38.95;;
21270;SDS011;10795;50.796;3.860;2022-12-18T00:56:23;81.78;;;39.15;;
21270;SDS011;10795;50.796;3.860;2022-12-18T00:58:51;93.68;;;40.83;;
21270;SDS011;10795;50.796;3.860;2022-12-18T01:01:17;93.40;;;42.70;;
21270;SDS011;10795;50.796;3.860;2022-12-18T01:03:43;92.45;;;41.92;;
21270;SDS011;10795;50.796;3.860;2022-12-18T01:06:11;94.32;;;43.47;;
21270;SDS011;10795;50.796;3.860;2022-12-18T01:08:38;90.70;;;44.85;;
21270;SDS011;10795;50.796;3.860;2022-12-18T01:11:10;92.10;;;44.03;;
21270;SDS011;10795;50.796;3.860;2022-12-18T01:13:38;92.55;;;44.80;;
21270;SDS011;10795;50.796;3.860;2022-12-18T01:16:04;93.75;;;44.83;;
21270;SDS011;10795;50.796;3.860;2022-12-18T01:18:33;89.33;;;44.10;;
21270;SDS011;10795;50.796;3.860;2022-12-18T01:21:00;92.90;;;44.33;;
21270;SDS011;10795;50.796;3.860;2022-12-18T01:23:26;95.38;;;44.47;;
21270;SDS011;10795;50.796;3.860;2022-12-18T01:25:51;86.35;;;41.78;;
21270;SDS011;10795;50.796;3.860;2022-12-18T01:28:17;91.72;;;44.30;;
21270;SDS011;10795;50.796;3.860;2022-12-18T01:30:43;89.60;;;43.60;;
21270;SDS011;10795;50.796;3.860;2022-12-18T01:33:09;101.45;;;45.58;;
21270;SDS011;10795;50.796;3.860;2022-12-18T01:35:39;91.60;;;42.95;;
21270;SDS011;10795;50.796;3.860;2022-12-18T01:38:08;83.43;;;41.20;;
21270;SDS011;10795;50.796;3.860;2022-12-18T01:40:34;84.93;;;41.33;;
21270;SDS011;10795;50.796;3.860;2022-12-18T01:43:00;77.68;;;38.53;;
21270;SDS011;10795;50.796;3.860;2022-12-18T01:45:30;76.03;;;38.78;;
21270;SDS011;10795;50.796;3.860;2022-12-18T01:48:03;77.13;;;38.60;;
21270;SDS011;10795;50.796;3.860;2022-12-18T01:50:32;73.13;;;36.70;;
21270;SDS011;10795;50.796;3.860;2022-12-18T01:53:14;75.50;;;37.13;;
21270;SDS011;10795;50.796;3.860;2022-12-18T01:55:53;75.47;;;36.65;;
21270;SDS011;10795;50.796;3.860;2022-12-18T01:58:24;71.03;;;36.37;;
21270;SDS011;10795;50.796;3.860;2022-12-18T02:01:13;68.47;;;34.87;;
21270;SDS011;10795;50.796;3.860;2022-12-18T02:03:42;74.35;;;35.75;;
21270;SDS011;10795;50.796;3.860;2022-12-18T02:06:16;69.97;;;36.47;;
21270;SDS011;10795;50.796;3.860;2022-12-18T02:14:42;71.75;;;34.58;;
21270;SDS011;10795;50.796;3.860;2022-12-18T02:17:22;69.60;;;34.85;;
21270;SDS011;10795;50.796;3.860;2022-12-18T02:23:03;72.57;;;35.33;;
21270;SDS011;10795;50.796;3.860;2022-12-18T02:28:09;69.15;;;33.63;;
21270;SDS011;10795;50.796;3.860;2022-12-18T02:30:38;63.92;;;33.10;;
21270;SDS011;10795;50.796;3.860;2022-12-18T02:33:06;67.25;;;33.63;;
21270;SDS011;10795;50.796;3.860;2022-12-18T02:35:33;66.75;;;33.85;;
21270;SDS011;10795;50.796;3.860;2022-12-18T02:38:01;68.85;;;34.85;;
21270;SDS011;10795;50.796;3.860;2022-12-18T02:40:32;70.38;;;34.88;;
21270;SDS011;10795;50.796;3.860;2022-12-18T02:43:06;67.03;;;35.27;;
21270;SDS011;10795;50.796;3.860;2022-12-18T02:45:33;64.00;;;34.20;;
21270;SDS011;10795;50.796;3.860;2022-12-18T02:47:59;72.63;;;35.80;;
21270;SDS011;10795;50.796;3.860;2022-12-18T02:50:27;67.68;;;34.08;;
21270;SDS011;10795;50.796;3.860;2022-12-18T03:03:59;67.27;;;34.07;;
21270;SDS011;10795;50.796;3.860;2022-12-18T03:06:30;75.53;;;35.50;;
21270;SDS011;10795;50.796;3.860;2022-12-18T03:09:02;66.67;;;33.83;;
21270;SDS011;10795;50.796;3.860;2022-12-18T03:11:36;71.30;;;35.20;;
21270;SDS011;10795;50.796;3.860;2022-12-18T03:14:23;68.70;;;34.40;;
21270;SDS011;10795;50.796;3.860;2022-12-18T03:16:54;71.33;;;34.77;;
21270;SDS011;10795;50.796;3.860;2022-12-18T03:19:26;63.90;;;33.70;;
21270;SDS011;10795;50.796;3.860;2022-12-18T03:21:57;73.57;;;35.10;;
21270;SDS011;10795;50.796;3.860;2022-12-18T03:24:31;69.37;;;33.93;;
21270;SDS011;10795;50.796;3.860;2022-12-18T03:27:02;68.83;;;34.83;;
21270;SDS011;10795;50.796;3.860;2022-12-18T03:29:37;69.87;;;31.87;;
21270;SDS011;10795;50.796;3.860;2022-12-18T03:32:16;71.47;;;34.50;;
21270;SDS011;10795;50.796;3.860;2022-12-18T03:34:50;74.27;;;36.07;;
21270;SDS011;10795;50.796;3.860;2022-12-18T03:37:20;70.07;;;35.33;;
21270;SDS011;10795;50.796;3.860;2022-12-18T03:39:46;72.93;;;36.47;;
21270;SDS011;10795;50.796;3.860;2022-12-18T03:42:26;71.63;;;35.67;;
21270;SDS011;10795;50.796;3.860;2022-12-18T03:45:20;74.23;;;37.17;;
21270;SDS011;10795;50.796;3.860;2022-12-18T03:50:36;82.37;;;38.10;;
21270;SDS011;10795;50.796;3.860;2022-12-18T03:56:10;69.47;;;35.07;;
21270;SDS011;10795;50.796;3.860;2022-12-18T03:58:40;68.75;;;33.63;;
21270;SDS011;10795;50.796;3.860;2022-12-18T04:01:20;72.72;;;34.55;;
21270;SDS011;10795;50.796;3.860;2022-12-18T04:03:51;65.03;;;32.67;;
21270;SDS011;10795;50.796;3.860;2022-12-18T04:06:19;67.57;;;33.13;;
21270;SDS011;10795;50.796;3.860;2022-12-18T04:08:45;73.70;;;34.17;;
21270;SDS011;10795;50.796;3.860;2022-12-18T04:11:15;74.18;;;33.85;;
21270;SDS011;10795;50.796;3.860;2022-12-18T04:13:43;76.30;;;35.00;;
21270;SDS011;10795;50.796;3.860;2022-12-18T04:16:17;69.00;;;34.25;;
21270;SDS011;10795;50.796;3.860;2022-12-18T04:18:44;67.90;;;34.33;;
21270;SDS011;10795;50.796;3.860;2022-12-18T04:21:10;74.35;;;35.30;;
21270;SDS011;10795;50.796;3.860;2022-12-18T04:23:36;72.23;;;34.57;;
21270;SDS011;10795;50.796;3.860;2022-12-18T04:26:02;72.53;;;34.30;;
21270;SDS011;10795;50.796;3.860;2022-12-18T04:28:54;72.97;;;35.22;;
21270;SDS011;10795;50.796;3.860;2022-12-18T04:31:20;70.88;;;34.25;;
21270;SDS011;10795;50.796;3.860;2022-12-18T04:33:46;73.70;;;34.23;;
21270;SDS011;10795;50.796;3.860;2022-12-18T04:36:13;71.00;;;34.03;;
21270;SDS011;10795;50.796;3.860;2022-12-18T04:38:39;62.30;;;31.87;;
21270;SDS011;10795;50.796;3.860;2022-12-18T04:41:09;61.28;;;30.15;;
21270;SDS011;10795;50.796;3.860;2022-12-18T04:43:35;63.55;;;32.40;;
21270;SDS011;10795;50.796;3.860;2022-12-18T04:46:05;64.05;;;32.45;;
21270;SDS011;10795;50.796;3.860;2022-12-18T04:50:57;61.60;;;28.80;;
21270;SDS011;10795;50.796;3.860;2022-12-18T04:53:23;70.78;;;32.85;;
21270;SDS011;10795;50.796;3.860;2022-12-18T04:55:49;71.20;;;34.55;;
21270;SDS011;10795;50.796;3.860;2022-12-18T04:58:15;78.15;;;35.67;;
21270;SDS011;10795;50.796;3.860;2022-12-18T05:00:41;75.32;;;36.50;;
21270;SDS011;10795;50.796;3.860;2022-12-18T05:03:06;81.40;;;37.78;;
21270;SDS011;10795;50.796;3.860;2022-12-18T05:05:34;78.20;;;37.07;;
21270;SDS011;10795;50.796;3.860;2022-12-18T05:08:00;79.53;;;37.67;;
21270;SDS011;10795;50.796;3.860;2022-12-18T05:10:26;81.57;;;38.70;;
21270;SDS011;10795;50.796;3.860;2022-12-18T05:12:52;82.37;;;38.87;;
21270;SDS011;10795;50.796;3.860;2022-12-18T05:15:24;84.40;;;39.30;;
21270;SDS011;10795;50.796;3.860;2022-12-18T05:17:56;89.33;;;40.73;;
21270;SDS011;10795;50.796;3.860;2022-12-18T05:20:22;84.80;;;39.43;;
21270;SDS011;10795;50.796;3.860;2022-12-18T05:22:48;87.57;;;39.70;;
21270;SDS011;10795;50.796;3.860;2022-12-18T05:25:14;81.00;;;36.43;;
21270;SDS011;10795;50.796;3.860;2022-12-18T05:27:40;75.50;;;36.07;;
21270;SDS011;10795;50.796;3.860;2022-12-18T05:30:06;77.10;;;35.37;;
21270;SDS011;10795;50.796;3.860;2022-12-18T05:32:33;80.07;;;38.60;;
21270;SDS011;10795;50.796;3.860;2022-12-18T05:34:59;79.57;;;37.90;;
21270;SDS011;10795;50.796;3.860;2022-12-18T05:37:24;75.03;;;38.07;;
21270;SDS011;10795;50.796;3.860;2022-12-18T05:39:50;75.60;;;36.83;;
21270;SDS011;10795;50.796;3.860;2022-12-18T05:42:16;78.47;;;36.90;;
21270;SDS011;10795;50.796;3.860;2022-12-18T05:44:42;78.43;;;37.07;;
21270;SDS011;10795;50.796;3.860;2022-12-18T05:47:08;73.60;;;36.83;;
21270;SDS011;10795;50.796;3.860;2022-12-18T05:49:34;81.13;;;36.17;;
21270;SDS011;10795;50.796;3.860;2022-12-18T05:52:00;77.47;;;36.53;;
21270;SDS011;10795;50.796;3.860;2022-12-18T05:54:28;73.63;;;36.70;;
21270;SDS011;10795;50.796;3.860;2022-12-18T05:56:54;73.07;;;37.10;;
21270;SDS011;10795;50.796;3.860;2022-12-18T05:59:20;76.50;;;35.90;;
21270;SDS011;10795;50.796;3.860;2022-12-18T06:01:46;73.83;;;36.17;;
21270;SDS011;10795;50.796;3.860;2022-12-18T06:04:12;72.90;;;35.20;;
21270;SDS011;10795;50.796;3.860;2022-12-18T06:06:38;67.37;;;34.17;;
21270;SDS011;10795;50.796;3.860;2022-12-18T06:09:03;76.63;;;35.50;;
21270;SDS011;10795;50.796;3.860;2022-12-18T06:11:35;70.60;;;32.80;;
21270;SDS011;10795;50.796;3.860;2022-12-18T06:14:02;70.23;;;34.73;;
21270;SDS011;10795;50.796;3.860;2022-12-18T06:16:30;71.33;;;33.97;;
21270;SDS011;10795;50.796;3.860;2022-12-18T06:18:56;68.97;;;33.10;;
21270;SDS011;10795;50.796;3.860;2022-12-18T06:21:26;66.73;;;32.00;;
21270;SDS011;10795;50.796;3.860;2022-12-18T06:23:53;65.53;;;31.43;;
21270;SDS011;10795;50.796;3.860;2022-12-18T06:26:19;64.60;;;31.80;;
21270;SDS011;10795;50.796;3.860;2022-12-18T06:28:44;68.97;;;32.03;;
21270;SDS011;10795;50.796;3.860;2022-12-18T06:31:10;67.80;;;32.00;;
21270;SDS011;10795;50.796;3.860;2022-12-18T06:33:37;66.47;;;30.83;;
21270;SDS011;10795;50.796;3.860;2022-12-18T06:36:04;63.83;;;32.20;;
21270;SDS011;10795;50.796;3.860;2022-12-18T06:38:33;69.28;;;33.33;;
21270;SDS011;10795;50.796;3.860;2022-12-18T06:40:59;64.77;;;31.70;;
21270;SDS011;10795;50.796;3.860;2022-12-18T06:43:26;65.80;;;31.43;;
21270;SDS011;10795;50.796;3.860;2022-12-18T06:45:57;58.40;;;30.33;;
21270;SDS011;10795;50.796;3.860;2022-12-18T06:48:25;60.10;;;29.03;;
21270;SDS011;10795;50.796;3.860;2022-12-18T06:50:50;61.00;;;30.73;;
21270;SDS011;10795;50.796;3.860;2022-12-18T06:53:16;65.50;;;29.97;;
21270;SDS011;10795;50.796;3.860;2022-12-18T06:55:42;58.80;;;29.37;;
21270;SDS011;10795;50.796;3.860;2022-12-18T06:58:08;52.17;;;27.23;;
21270;SDS011;10795;50.796;3.860;2022-12-18T07:00:34;54.40;;;26.70;;
21270;SDS011;10795;50.796;3.860;2022-12-18T07:02:59;66.20;;;31.80;;
21270;SDS011;10795;50.796;3.860;2022-12-18T07:05:25;54.97;;;26.97;;
21270;SDS011;10795;50.796;3.860;2022-12-18T07:07:51;59.13;;;29.57;;
21270;SDS011;10795;50.796;3.860;2022-12-18T07:10:17;61.40;;;30.10;;
21270;SDS011;10795;50.796;3.860;2022-12-18T07:12:43;69.43;;;33.45;;
21270;SDS011;10795;50.796;3.860;2022-12-18T07:15:09;60.92;;;31.05;;
21270;SDS011;10795;50.796;3.860;2022-12-18T07:17:35;54.28;;;27.92;;
21270;SDS011;10795;50.796;3.860;2022-12-18T07:20:01;52.57;;;26.93;;
21270;SDS011;10795;50.796;3.860;2022-12-18T07:22:27;54.73;;;26.77;;
21270;SDS011;10795;50.796;3.860;2022-12-18T07:24:53;52.50;;;27.10;;
21270;SDS011;10795;50.796;3.860;2022-12-18T07:27:18;56.30;;;27.20;;
21270;SDS011;10795;50.796;3.860;2022-12-18T07:29:45;50.90;;;26.40;;
21270;SDS011;10795;50.796;3.860;2022-12-18T07:32:10;52.27;;;25.37;;
21270;SDS011;10795;50.796;3.860;2022-12-18T07:34:36;49.78;;;25.65;;
21270;SDS011;10795;50.796;3.860;2022-12-18T07:37:02;50.83;;;25.10;;
21270;SDS011;10795;50.796;3.860;2022-12-18T07:39:34;52.00;;;24.90;;
21270;SDS011;10795;50.796;3.860;2022-12-18T07:41:59;50.03;;;24.15;;
21270;SDS011;10795;50.796;3.860;2022-12-18T07:44:44;46.10;;;24.02;;
21270;SDS011;10795;50.796;3.860;2022-12-18T07:47:10;49.45;;;27.13;;
21270;SDS011;10795;50.796;3.860;2022-12-18T07:49:35;46.85;;;24.20;;
21270;SDS011;10795;50.796;3.860;2022-12-18T07:52:01;46.03;;;22.95;;
21270;SDS011;10795;50.796;3.860;2022-12-18T07:54:27;44.00;;;22.75;;
21270;SDS011;10795;50.796;3.860;2022-12-18T07:56:53;43.30;;;22.40;;
21270;SDS011;10795;50.796;3.860;2022-12-18T07:59:18;40.65;;;21.38;;
21270;SDS011;10795;50.796;3.860;2022-12-18T08:01:45;40.90;;;21.55;;
21270;SDS011;10795;50.796;3.860;2022-12-18T08:04:11;38.92;;;19.30;;
21270;SDS011;10795;50.796;3.860;2022-12-18T08:06:36;38.15;;;20.75;;
21270;SDS011;10795;50.796;3.860;2022-12-18T08:09:02;39.00;;;19.80;;
21270;SDS011;10795;50.796;3.860;2022-12-18T08:11:28;35.47;;;18.27;;
21270;SDS011;10795;50.796;3.860;2022-12-18T08:13:55;37.25;;;19.35;;
21270;SDS011;10795;50.796;3.860;2022-12-18T08:16:21;30.55;;;17.50;;
21270;SDS011;10795;50.796;3.860;2022-12-18T08:18:47;36.60;;;19.40;;
21270;SDS011;10795;50.796;3.860;2022-12-18T08:23:43;39.97;;;19.65;;
21270;SDS011;10795;50.796;3.860;2022-12-18T08:26:10;35.90;;;18.77;;
21270;SDS011;10795;50.796;3.860;2022-12-18T08:28:36;34.88;;;18.38;;
21270;SDS011;10795;50.796;3.860;2022-12-18T08:31:02;31.20;;;16.05;;
21270;SDS011;10795;50.796;3.860;2022-12-18T08:33:28;26.08;;;15.23;;
21270;SDS011;10795;50.796;3.860;2022-12-18T08:35:54;33.58;;;16.90;;
21270;SDS011;10795;50.796;3.860;2022-12-18T08:38:20;34.13;;;16.75;;
21270;SDS011;10795;50.796;3.860;2022-12-18T08:40:46;32.58;;;17.13;;
21270;SDS011;10795;50.796;3.860;2022-12-18T08:43:11;27.17;;;15.80;;
21270;SDS011;10795;50.796;3.860;2022-12-18T08:45:56;30.00;;;16.25;;
21270;SDS011;10795;50.796;3.860;2022-12-18T08:48:22;31.20;;;16.70;;
21270;SDS011;10795;50.796;3.860;2022-12-18T08:50:54;31.73;;;17.83;;
21270;SDS011;10795;50.796;3.860;2022-12-18T08:53:21;35.00;;;17.42;;
21270;SDS011;10795;50.796;3.860;2022-12-18T08:55:49;31.67;;;17.65;;
21270;SDS011;10795;50.796;3.860;2022-12-18T08:58:15;35.85;;;18.02;;
21270;SDS011;10795;50.796;3.860;2022-12-18T09:00:41;30.50;;;17.88;;
21270;SDS011;10795;50.796;3.860;2022-12-18T09:03:16;28.13;;;16.23;;
21270;SDS011;10795;50.796;3.860;2022-12-18T09:05:43;27.27;;;15.77;;
21270;SDS011;10795;50.796;3.860;2022-12-18T09:08:12;28.77;;;16.70;;
21270;SDS011;10795;50.796;3.860;2022-12-18T09:10:41;27.35;;;15.60;;
21270;SDS011;10795;50.796;3.860;2022-12-18T09:13:11;39.90;;;22.00;;
21270;SDS011;10795;50.796;3.860;2022-12-18T09:15:44;35.92;;;20.52;;
21270;SDS011;10795;50.796;3.860;2022-12-18T09:18:12;33.47;;;18.52;;
21270;SDS011;10795;50.796;3.860;2022-12-18T09:20:38;33.60;;;17.92;;
21270;SDS011;10795;50.796;3.860;2022-12-18T09:23:05;29.27;;;16.88;;
21270;SDS011;10795;50.796;3.860;2022-12-18T09:25:31;34.58;;;17.80;;
21270;SDS011;10795;50.796;3.860;2022-12-18T09:27:58;34.80;;;20.10;;
21270;SDS011;10795;50.796;3.860;2022-12-18T09:30:25;36.92;;;19.92;;
21270;SDS011;10795;50.796;3.860;2022-12-18T09:32:51;32.60;;;18.38;;
21270;SDS011;10795;50.796;3.860;2022-12-18T09:35:18;29.35;;;16.50;;
21270;SDS011;10795;50.796;3.860;2022-12-18T09:37:44;28.55;;;17.00;;
21270;SDS011;10795;50.796;3.860;2022-12-18T09:40:16;28.85;;;16.23;;
21270;SDS011;10795;50.796;3.860;2022-12-18T09:42:45;27.80;;;16.83;;
21270;SDS011;10795;50.796;3.860;2022-12-18T09:45:17;27.27;;;16.67;;
21270;SDS011;10795;50.796;3.860;2022-12-18T09:47:43;27.92;;;16.42;;
21270;SDS011;10795;50.796;3.860;2022-12-18T09:50:27;25.83;;;14.05;;
21270;SDS011;10795;50.796;3.860;2022-12-18T09:53:04;26.02;;;14.15;;
21270;SDS011;10795;50.796;3.860;2022-12-18T09:55:41;30.52;;;15.82;;
21270;SDS011;10795;50.796;3.860;2022-12-18T10:00:38;27.17;;;15.50;;
21270;SDS011;10795;50.796;3.860;2022-12-18T10:03:11;34.15;;;19.48;;
21270;SDS011;10795;50.796;3.860;2022-12-18T10:05:45;40.53;;;21.17;;
21270;SDS011;10795;50.796;3.860;2022-12-18T10:11:13;34.03;;;19.23;;
21270;SDS011;10795;50.796;3.860;2022-12-18T10:13:42;34.22;;;19.00;;
21270;SDS011;10795;50.796;3.860;2022-12-18T10:16:36;49.22;;;24.15;;
21270;SDS011;10795;50.796;3.860;2022-12-18T10:19:17;53.75;;;27.40;;
21270;SDS011;10795;50.796;3.860;2022-12-18T10:27:53;35.78;;;21.48;;
21270;SDS011;10795;50.796;3.860;2022-12-18T10:30:23;49.28;;;27.77;;
21270;SDS011;10795;50.796;3.860;2022-12-18T10:32:50;39.70;;;22.33;;
21270;SDS011;10795;50.796;3.860;2022-12-18T10:35:20;49.60;;;26.15;;
21270;SDS011;10795;50.796;3.860;2022-12-18T10:40:28;47.67;;;23.95;;
21270;SDS011;10795;50.796;3.860;2022-12-18T10:43:04;41.08;;;22.33;;
21270;SDS011;10795;50.796;3.860;2022-12-18T10:45:35;40.92;;;22.20;;
21270;SDS011;10795;50.796;3.860;2022-12-18T10:48:01;37.90;;;19.83;;
21270;SDS011;10795;50.796;3.860;2022-12-18T10:50:30;35.17;;;20.33;;
21270;SDS011;10795;50.796;3.860;2022-12-18T10:52:59;36.50;;;19.35;;
21270;SDS011;10795;50.796;3.860;2022-12-18T10:55:27;35.55;;;19.85;;
21270;SDS011;10795;50.796;3.860;2022-12-18T10:58:12;36.75;;;18.98;;
21270;SDS011;10795;50.796;3.860;2022-12-18T11:00:46;32.60;;;18.45;;
21270;SDS011;10795;50.796;3.860;2022-12-18T11:06:02;32.40;;;18.10;;
21270;SDS011;10795;50.796;3.860;2022-12-18T11:08:39;34.85;;;18.90;;
21270;SDS011;10795;50.796;3.860;2022-12-18T11:11:07;36.17;;;18.85;;
21270;SDS011;10795;50.796;3.860;2022-12-18T11:14:01;33.88;;;19.30;;
21270;SDS011;10795;50.796;3.860;2022-12-18T11:16:43;33.75;;;18.48;;
21270;SDS011;10795;50.796;3.860;2022-12-18T11:22:00;34.83;;;17.70;;
21270;SDS011;10795;50.796;3.860;2022-12-18T11:24:34;35.58;;;18.63;;
21270;SDS011;10795;50.796;3.860;2022-12-18T11:27:04;37.53;;;19.58;;
21270;SDS011;10795;50.796;3.860;2022-12-18T11:29:35;34.88;;;18.95;;
21270;SDS011;10795;50.796;3.860;2022-12-18T11:35:10;33.95;;;18.08;;
21270;SDS011;10795;50.796;3.860;2022-12-18T11:40:43;36.65;;;19.25;;
21270;SDS011;10795;50.796;3.860;2022-12-18T11:43:35;39.00;;;19.27;;
21270;SDS011;10795;50.796;3.860;2022-12-18T11:46:11;31.45;;;16.85;;
21270;SDS011;10795;50.796;3.860;2022-12-18T11:48:44;35.00;;;18.52;;
21270;SDS011;10795;50.796;3.860;2022-12-18T11:51:22;38.20;;;19.92;;
21270;SDS011;10795;50.796;3.860;2022-12-18T11:53:54;30.45;;;16.10;;
21270;SDS011;10795;50.796;3.860;2022-12-18T12:01:36;37.15;;;19.98;;
21270;SDS011;10795;50.796;3.860;2022-12-18T12:23:27;39.55;;;19.10;;
21270;SDS011;10795;50.796;3.860;2022-12-18T12:31:30;63.92;;;27.02;;
21270;SDS011;10795;50.796;3.860;2022-12-18T12:34:16;72.95;;;28.02;;
21270;SDS011;10795;50.796;3.860;2022-12-18T12:39:34;46.00;;;23.70;;
21270;SDS011;10795;50.796;3.860;2022-12-18T12:44:55;42.25;;;20.85;;
21270;SDS011;10795;50.796;3.860;2022-12-18T12:47:27;47.67;;;22.15;;
21270;SDS011;10795;50.796;3.860;2022-12-18T12:49:58;47.40;;;22.90;;
21270;SDS011;10795;50.796;3.860;2022-12-18T12:52:31;40.95;;;22.15;;
21270;SDS011;10795;50.796;3.860;2022-12-18T12:55:05;38.83;;;19.40;;
21270;SDS011;10795;50.796;3.860;2022-12-18T12:57:38;32.92;;;17.13;;
21270;SDS011;10795;50.796;3.860;2022-12-18T13:00:11;42.70;;;20.73;;
21270;SDS011;10795;50.796;3.860;2022-12-18T13:02:45;40.10;;;20.23;;
21270;SDS011;10795;50.796;3.860;2022-12-18T13:05:30;42.15;;;21.65;;
21270;SDS011;10795;50.796;3.860;2022-12-18T13:08:06;40.75;;;20.02;;
21270;SDS011;10795;50.796;3.860;2022-12-18T13:10:37;41.65;;;21.10;;
21270;SDS011;10795;50.796;3.860;2022-12-18T13:13:13;40.53;;;20.25;;
21270;SDS011;10795;50.796;3.860;2022-12-18T13:15:42;39.83;;;19.13;;
21270;SDS011;10795;50.796;3.860;2022-12-18T13:18:28;42.88;;;22.05;;
21270;SDS011;10795;50.796;3.860;2022-12-18T13:25:52;40.60;;;20.85;;
21270;SDS011;10795;50.796;3.860;2022-12-18T13:31:03;44.67;;;21.13;;
21270;SDS011;10795;50.796;3.860;2022-12-18T13:38:36;43.97;;;21.55;;
21270;SDS011;10795;50.796;3.860;2022-12-18T13:46:42;43.60;;;21.05;;
21270;SDS011;10795;50.796;3.860;2022-12-18T13:51:48;42.55;;;21.40;;
21270;SDS011;10795;50.796;3.860;2022-12-18T13:54:30;44.30;;;21.83;;
21270;SDS011;10795;50.796;3.860;2022-12-18T13:57:03;50.33;;;23.05;;
21270;SDS011;10795;50.796;3.860;2022-12-18T13:59:35;45.55;;;21.83;;
21270;SDS011;10795;50.796;3.860;2022-12-18T14:02:21;48.30;;;22.63;;
21270;SDS011;10795;50.796;3.860;2022-12-18T14:04:48;44.13;;;21.98;;
21270;SDS011;10795;50.796;3.860;2022-12-18T14:07:16;46.95;;;23.92;;
21270;SDS011;10795;50.796;3.860;2022-12-18T14:09:54;47.40;;;22.73;;
21270;SDS011;10795;50.796;3.860;2022-12-18T14:12:26;52.17;;;25.02;;
21270;SDS011;10795;50.796;3.860;2022-12-18T14:15:20;46.50;;;23.80;;
21270;SDS011;10795;50.796;3.860;2022-12-18T14:17:55;46.90;;;20.20;;
21270;SDS011;10795;50.796;3.860;2022-12-18T14:20:43;46.60;;;22.38;;
21270;SDS011;10795;50.796;3.860;2022-12-18T14:25:53;45.80;;;22.48;;
21270;SDS011;10795;50.796;3.860;2022-12-18T14:28:19;50.00;;;23.63;;
21270;SDS011;10795;50.796;3.860;2022-12-18T14:30:47;43.50;;;20.88;;
21270;SDS011;10795;50.796;3.860;2022-12-18T14:33:14;45.47;;;21.40;;
21270;SDS011;10795;50.796;3.860;2022-12-18T14:35:41;46.45;;;21.70;;
21270;SDS011;10795;50.796;3.860;2022-12-18T14:38:25;41.60;;;20.55;;
21270;SDS011;10795;50.796;3.860;2022-12-18T14:43:34;39.60;;;18.98;;
21270;SDS011;10795;50.796;3.860;2022-12-18T14:46:02;41.17;;;18.90;;
21270;SDS011;10795;50.796;3.860;2022-12-18T14:48:35;45.92;;;20.63;;
21270;SDS011;10795;50.796;3.860;2022-12-18T14:51:13;42.50;;;20.83;;
21270;SDS011;10795;50.796;3.860;2022-12-18T14:54:04;41.78;;;21.10;;
21270;SDS011;10795;50.796;3.860;2022-12-18T14:56:33;42.42;;;20.90;;
21270;SDS011;10795;50.796;3.860;2022-12-18T14:59:05;40.35;;;18.90;;
21270;SDS011;10795;50.796;3.860;2022-12-18T15:05:04;41.58;;;21.50;;
21270;SDS011;10795;50.796;3.860;2022-12-18T15:07:44;41.88;;;19.83;;
21270;SDS011;10795;50.796;3.860;2022-12-18T15:10:13;45.75;;;20.33;;
21270;SDS011;10795;50.796;3.860;2022-12-18T15:20:32;46.67;;;21.42;;
21270;SDS011;10795;50.796;3.860;2022-12-18T15:26:09;44.05;;;21.85;;
21270;SDS011;10795;50.796;3.860;2022-12-18T15:28:50;44.35;;;21.02;;
21270;SDS011;10795;50.796;3.860;2022-12-18T15:31:30;46.17;;;22.00;;
21270;SDS011;10795;50.796;3.860;2022-12-18T15:34:02;44.83;;;21.02;;
21270;SDS011;10795;50.796;3.860;2022-12-18T15:36:39;45.40;;;21.02;;
21270;SDS011;10795;50.796;3.860;2022-12-18T15:39:05;39.40;;;19.52;;
21270;SDS011;10795;50.796;3.860;2022-12-18T15:41:35;42.88;;;20.15;;
21270;SDS011;10795;50.796;3.860;2022-12-18T15:46:27;40.40;;;18.92;;
21270;SDS011;10795;50.796;3.860;2022-12-18T15:48:54;41.67;;;18.38;;
21270;SDS011;10795;50.796;3.860;2022-12-18T15:51:26;38.30;;;17.40;;
21270;SDS011;10795;50.796;3.860;2022-12-18T15:54:04;44.65;;;20.38;;
21270;SDS011;10795;50.796;3.860;2022-12-18T15:56:36;42.65;;;20.90;;
21270;SDS011;10795;50.796;3.860;2022-12-18T15:59:20;43.97;;;19.23;;
21270;SDS011;10795;50.796;3.860;2022-12-18T16:01:47;41.45;;;19.25;;
21270;SDS011;10795;50.796;3.860;2022-12-18T16:04:15;36.88;;;17.75;;
21270;SDS011;10795;50.796;3.860;2022-12-18T16:06:42;42.55;;;20.02;;
21270;SDS011;10795;50.796;3.860;2022-12-18T16:09:08;40.78;;;18.48;;
21270;SDS011;10795;50.796;3.860;2022-12-18T16:11:35;38.88;;;18.77;;
21270;SDS011;10795;50.796;3.860;2022-12-18T16:16:37;45.25;;;20.00;;
21270;SDS011;10795;50.796;3.860;2022-12-18T16:19:03;41.75;;;19.23;;
21270;SDS011;10795;50.796;3.860;2022-12-18T16:21:29;41.90;;;18.45;;
21270;SDS011;10795;50.796;3.860;2022-12-18T16:23:55;43.65;;;19.10;;
21270;SDS011;10795;50.796;3.860;2022-12-18T16:26:20;39.60;;;19.08;;
21270;SDS011;10795;50.796;3.860;2022-12-18T16:28:46;40.75;;;18.58;;
21270;SDS011;10795;50.796;3.860;2022-12-18T16:31:12;44.78;;;20.63;;
21270;SDS011;10795;50.796;3.860;2022-12-18T16:33:38;40.97;;;19.38;;
21270;SDS011;10795;50.796;3.860;2022-12-18T16:36:03;40.92;;;18.88;;
21270;SDS011;10795;50.796;3.860;2022-12-18T16:38:29;43.70;;;20.55;;
21270;SDS011;10795;50.796;3.860;2022-12-18T16:40:55;45.58;;;21.25;;
21270;SDS011;10795;50.796;3.860;2022-12-18T16:43:39;42.17;;;20.33;;
21270;SDS011;10795;50.796;3.860;2022-12-18T16:46:05;41.50;;;19.83;;
21270;SDS011;10795;50.796;3.860;2022-12-18T16:48:33;44.00;;;20.42;;
21270;SDS011;10795;50.796;3.860;2022-12-18T16:51:02;40.90;;;19.42;;
21270;SDS011;10795;50.796;3.860;2022-12-18T16:53:29;43.97;;;19.02;;
21270;SDS011;10795;50.796;3.860;2022-12-18T16:55:57;46.22;;;20.98;;
21270;SDS011;10795;50.796;3.860;2022-12-18T16:58:23;47.80;;;20.95;;